Time;durP1;ratioP1;P1;durP2;ratioP2;P2;SDS_P1;SDS_P2;PMS_P1;PMS_P2;Temp;Humidity;BMP_temperature;BMP_pressure;BME280_temperature;BME280_humidity;BME280_pressure;Samples;Min_cycle;Max_cycle;Signal;HPM_P1;HPM_P2
2022/06/12 00:02:06;;;;;;;24.33;6.65;;;19.00;99.90;;;19.41;67.75;102136.09;5113692;28;20059;-61
2022/06/12 00:04:34;;;;;;;21.17;6.50;;;19.00;99.90;;;19.38;68.25;102130.78;5113434;28;20503;-61
2022/06/12 00:07:03;;;;;;;23.98;6.28;;;18.90;99.90;;;19.39;68.25;102125.41;5113510;28;20039;-61
2022/06/12 00:09:31;;;;;;;21.23;7.13;;;19.00;99.90;;;19.37;68.34;102129.03;5113232;28;20044;-61
2022/06/12 00:12:01;;;;;;;26.73;6.35;;;18.90;99.90;;;19.35;68.60;102130.84;5113008;28;20126;-61
2022/06/12 00:14:30;;;;;;;19.10;6.53;;;18.90;99.90;;;19.33;68.47;102120.16;5095272;28;20130;-61
2022/06/12 00:16:58;;;;;;;21.55;6.63;;;18.90;99.90;;;19.33;68.55;102124.63;5113499;28;20281;-61
2022/06/12 00:19:26;;;;;;;27.63;7.25;;;18.90;99.90;;;19.32;68.68;102117.44;5094736;28;20082;-61
2022/06/12 00:21:55;;;;;;;24.83;6.05;;;18.80;99.90;;;19.26;68.98;102117.59;5113578;28;20044;-61
2022/06/12 00:24:24;;;;;;;26.65;7.60;;;18.80;99.90;;;19.26;69.09;102126.50;5113277;28;20094;-61
2022/06/12 00:26:56;;;;;;;25.02;6.60;;;18.80;99.90;;;19.19;69.20;102090.00;5113172;28;20134;-61
2022/06/12 00:29:30;;;;;;;26.63;6.50;;;18.80;99.90;;;19.32;69.57;102126.44;5113202;28;20039;-62
2022/06/12 00:32:04;;;;;;;21.45;6.60;;;18.80;99.90;;;19.36;69.71;102124.56;5113243;28;20044;-61
2022/06/12 00:34:37;;;;;;;23.15;6.57;;;18.90;99.90;;;19.34;69.97;102115.66;5112889;28;20461;-62
2022/06/12 00:37:07;;;;;;;25.27;7.18;;;18.90;99.90;;;19.31;70.21;102119.28;5112893;28;20515;-64
2022/06/12 00:39:36;;;;;;;25.70;8.23;;;18.90;99.90;;;19.31;70.39;102115.69;5113084;28;20067;-61
2022/06/12 00:42:06;;;;;;;26.45;7.93;;;18.90;99.90;;;19.31;70.52;102118.38;5112681;28;20536;-63
2022/06/12 00:44:42;;;;;;;28.65;7.22;;;18.80;99.90;;;19.24;71.06;102116.75;5112762;28;20071;-61
2022/06/12 00:47:14;;;;;;;31.10;8.43;;;18.80;99.90;;;19.21;71.33;102111.44;5094625;28;20515;-61
2022/06/12 00:49:47;;;;;;;23.42;7.43;;;18.80;99.90;;;19.11;71.29;102102.69;5112764;28;20373;-61
2022/06/12 00:52:22;;;;;;;21.98;7.00;;;18.80;99.90;;;19.16;71.60;102116.00;5112666;28;20096;-61
2022/06/12 00:54:59;;;;;;;27.95;7.50;;;18.70;99.90;;;19.17;71.79;102113.28;5112567;28;20043;-61
2022/06/12 00:57:29;;;;;;;30.80;7.55;;;18.70;99.90;;;19.21;71.85;102122.16;5112916;28;20104;-61
2022/06/12 01:00:07;;;;;;;33.88;7.80;;;18.70;99.90;;;19.20;72.05;102123.09;5093702;28;20459;-61
2022/06/12 01:02:39;;;;;;;26.30;7.80;;;18.70;99.90;;;19.17;72.16;102115.97;5112516;28;20044;-61
2022/06/12 01:08:02;;;;;;;28.63;7.47;;;18.70;99.90;;;19.19;72.52;102126.66;5112461;28;20082;-61
2022/06/12 01:10:32;;;;;;;26.92;7.32;;;18.70;99.90;;;19.08;72.38;102105.44;5112658;28;20418;-61
2022/06/12 01:13:06;;;;;;;22.40;7.28;;;18.70;99.90;;;19.02;72.64;102093.94;5112220;28;20055;-61
2022/06/12 01:15:40;;;;;;;26.23;7.50;;;18.70;99.90;;;19.16;72.93;102118.69;5112773;28;20043;-61
2022/06/12 01:18:12;;;;;;;32.85;8.93;;;18.70;99.90;;;19.13;73.16;102111.59;5112486;28;20071;-61
2022/06/12 01:20:49;;;;;;;27.42;7.53;;;18.70;99.90;;;19.14;73.13;102118.72;5112620;28;20101;-61
2022/06/12 01:23:45;;;;;;;25.80;7.63;;;18.70;99.90;;;19.15;73.07;102109.75;5112720;28;20043;-61
2022/06/12 01:26:52;;;;;;;30.20;7.57;;;18.70;99.90;;;19.11;73.30;102118.78;5112097;28;20048;-61
2022/06/12 01:29:29;;;;;;;27.88;8.05;;;18.70;99.90;;;19.03;73.81;102111.81;5113059;28;20067;-61
2022/06/12 01:32:04;;;;;;;30.30;8.88;;;18.60;99.90;;;19.06;73.87;102114.41;5112506;28;20401;-61
2022/06/12 01:34:42;;;;;;;30.02;8.15;;;18.60;99.90;;;19.05;74.05;102115.34;5112784;28;20036;-61
2022/06/12 01:37:21;;;;;;;25.27;7.63;;;18.60;99.90;;;18.99;74.08;102107.41;5112862;28;20047;-61
2022/06/12 01:40:03;;;;;;;27.50;7.85;;;18.50;99.90;;;19.00;74.28;102112.75;5112961;28;20078;-61
2022/06/12 01:42:45;;;;;;;38.78;8.65;;;18.50;99.90;;;19.03;74.10;102114.50;5112371;28;20039;-61
2022/06/12 01:45:29;;;;;;;25.17;8.02;;;18.60;99.90;;;19.01;74.10;102110.94;5112401;28;20424;-61
2022/06/12 01:48:08;;;;;;;27.10;8.52;;;18.60;99.90;;;18.95;74.09;102119.13;5112682;28;20040;-62
2022/06/12 01:50:43;;;;;;;27.95;8.57;;;18.50;99.90;;;18.99;74.11;102123.50;5112622;28;20048;-61
2022/06/12 01:53:17;;;;;;;31.45;8.68;;;18.50;99.90;;;18.98;74.04;102122.63;5112974;28;20043;-60
2022/06/12 01:55:51;;;;;;;31.08;8.25;;;18.50;99.90;;;18.96;74.33;102126.22;5094718;28;20441;-61
2022/06/12 01:58:29;;;;;;;27.23;7.45;;;18.50;99.90;;;18.87;74.65;102119.25;5112629;28;20382;-61
2022/06/12 02:01:06;;;;;;;27.83;7.90;;;18.50;99.90;;;18.84;74.65;102122.88;5112117;28;20092;-61
2022/06/12 02:03:43;;;;;;;27.88;8.18;;;18.40;99.90;;;18.89;74.69;102120.13;5112090;28;20043;-61
2022/06/12 02:06:19;;;;;;;33.20;8.57;;;18.40;99.90;;;18.85;74.73;102113.91;5112341;28;20191;-61
2022/06/12 02:08:55;;;;;;;33.80;9.35;;;18.40;99.90;;;18.82;74.88;102116.66;5112219;28;20047;-60
2022/06/12 02:14:21;;;;;;;30.00;8.35;;;18.40;99.90;;;18.69;75.16;102109.75;5116211;28;20062;-61
2022/06/12 02:16:55;;;;;;;28.15;8.23;;;18.30;99.90;;;18.72;74.97;102115.03;5116098;28;20055;-61
2022/06/12 02:19:30;;;;;;;29.98;8.52;;;18.30;99.90;;;18.64;75.32;102100.03;5115752;28;20040;-61
2022/06/12 02:22:07;;;;;;;27.58;8.48;;;18.20;99.90;;;18.61;75.39;102105.41;5115788;28;20066;-61
2022/06/12 02:24:41;;;;;;;29.10;8.52;;;18.20;99.90;;;18.54;75.64;102118.03;5115658;28;20104;-61
2022/06/12 02:27:15;;;;;;;30.92;8.73;;;18.10;99.90;;;18.51;75.78;102103.81;5097457;28;20058;-61
2022/06/12 02:29:48;;;;;;;29.50;8.55;;;18.10;99.90;;;18.51;76.28;102110.06;5097105;28;20044;-61
2022/06/12 02:32:24;;;;;;;14.35;6.35;;;18.10;99.90;;;18.42;77.20;102111.97;5115583;28;20072;-61
2022/06/12 02:34:57;;;;;;;18.00;6.50;;;18.00;99.90;;;18.25;77.11;102106.91;5115349;28;20569;-61
2022/06/12 02:37:31;;;;;;;20.33;7.60;;;17.90;99.90;;;18.11;77.17;102114.28;5115314;28;20043;-61
2022/06/12 02:40:06;;;;;;;27.00;8.75;;;17.70;99.90;;;17.91;77.64;102100.28;5115423;28;20134;-61
2022/06/12 02:42:41;;;;;;;22.23;7.55;;;17.50;99.90;;;17.70;78.25;102105.94;5115206;28;20047;-61
2022/06/12 02:45:17;;;;;;;29.27;8.75;;;17.30;99.90;;;17.62;79.25;102102.47;5115050;28;20047;-61
2022/06/12 02:47:48;;;;;;;23.05;7.97;;;17.20;99.90;;;17.59;79.55;102094.50;5115105;28;20403;-60
2022/06/12 02:50:22;;;;;;;24.23;8.02;;;17.10;99.90;;;17.34;80.07;102071.63;5115050;28;20082;-61
2022/06/12 02:53:04;;;;;;;29.42;9.80;;;17.10;99.90;;;17.48;80.65;102105.34;5115318;28;20441;-61
2022/06/12 02:55:46;;;;;;;24.15;8.80;;;17.00;99.90;;;17.29;80.62;102069.00;5115521;28;20075;-61
2022/06/12 02:58:21;;;;;;;24.33;8.32;;;16.90;99.90;;;17.36;81.25;102104.59;5114777;28;20040;-61
2022/06/12 03:00:54;;;;;;;29.73;8.05;;;16.90;99.90;;;17.37;81.63;102101.00;5115082;28;20068;-61
2022/06/12 03:03:28;;;;;;;27.73;8.20;;;16.90;99.90;;;17.34;81.88;102106.41;5114757;28;20078;-60
2022/06/12 03:06:00;;;;;;;24.45;7.85;;;16.90;99.90;;;17.27;82.33;102096.66;5114721;28;20481;-61
2022/06/12 03:08:36;;;;;;;35.33;9.35;;;16.90;99.90;;;17.22;82.86;102093.16;5114574;28;20043;-61
2022/06/12 03:11:10;;;;;;;25.27;8.32;;;16.80;99.90;;;17.37;83.19;102098.31;5114783;28;20104;-61
2022/06/12 03:13:39;;;;;;;30.75;8.68;;;16.90;99.90;;;17.52;82.91;102100.84;5114797;28;20048;-60
2022/06/12 03:16:16;;;;;;;30.80;9.02;;;17.00;99.90;;;17.61;82.30;102096.28;5114555;28;20067;-61
2022/06/12 03:18:54;;;;;;;31.17;9.15;;;17.20;99.90;;;17.66;82.00;102081.03;5114918;28;20436;-61
2022/06/12 03:21:36;;;;;;;39.97;9.75;;;17.20;99.90;;;17.75;81.66;102093.41;5114743;28;20381;-61
2022/06/12 03:24:25;;;;;;;25.25;8.05;;;17.30;99.90;;;17.87;81.26;102101.22;5114437;28;20390;-61
2022/06/12 03:27:12;;;;;;;31.20;8.15;;;17.40;99.90;;;17.83;80.73;102075.41;5114186;28;20097;-61
2022/06/12 03:29:49;;;;;;;32.92;9.45;;;17.50;99.90;;;17.96;80.25;102098.44;5114526;28;20071;-60
2022/06/12 03:32:27;;;;;;;28.65;8.80;;;17.50;99.90;;;17.98;79.97;102096.63;5114405;28;20044;-60
2022/06/12 03:35:13;;;;;;;21.55;7.65;;;17.60;99.90;;;17.95;79.70;102107.38;5114068;28;20063;-60
2022/06/12 03:37:50;;;;;;;29.95;8.43;;;17.60;99.90;;;17.94;79.42;102109.16;5114002;28;20040;-61
2022/06/12 03:40:27;;;;;;;26.30;9.23;;;17.50;99.90;;;17.89;79.43;102111.03;5114037;28;20039;-61
2022/06/12 03:43:00;;;;;;;24.77;8.05;;;17.50;99.90;;;17.88;79.26;102113.72;5113903;28;20052;-61
2022/06/12 03:45:37;;;;;;;23.85;8.57;;;17.40;99.90;;;17.85;79.21;102103.94;5113973;28;20489;-61
2022/06/12 03:48:19;;;;;;;22.35;7.90;;;17.40;99.90;;;17.85;78.98;102105.72;5113824;28;20096;-61
2022/06/12 03:50:59;;;;;;;11.68;6.13;;;17.40;99.90;;;17.84;79.74;102094.16;5113784;28;20484;-61
2022/06/12 03:53:37;;;;;;;15.10;6.40;;;17.40;99.90;;;17.72;80.34;102101.47;5113796;28;20040;-61
2022/06/12 03:59:03;;;;;;;17.27;7.13;;;17.10;99.90;;;17.49;81.42;102106.25;5114100;28;20043;-60
2022/06/12 04:01:32;;;;;;;19.02;6.88;;;17.00;99.90;;;16.91;81.52;101989.28;5113897;28;20473;-60
2022/06/12 04:04:02;;;;;;;20.27;7.22;;;17.00;99.90;;;17.56;81.05;102119.50;5113608;28;20046;-61
2022/06/12 04:06:33;;;;;;;30.98;8.13;;;17.10;99.90;;;17.03;80.41;102021.19;5114187;28;20073;-61
2022/06/12 04:09:06;;;;;;;22.00;7.05;;;17.10;99.90;;;17.64;80.33;102116.72;5113604;28;20044;-61
2022/06/12 04:11:39;;;;;;;17.23;6.78;;;17.10;99.90;;;17.62;80.44;102116.75;5113965;28;20122;-61
2022/06/12 04:14:15;;;;;;;20.48;6.47;;;17.20;99.90;;;17.63;80.61;102114.97;5113427;28;20051;-60
2022/06/12 04:16:48;;;;;;;20.65;6.80;;;17.20;99.90;;;17.64;80.65;102114.94;5113532;28;20049;-60
2022/06/12 04:19:23;;;;;;;13.55;6.93;;;17.20;99.90;;;17.71;80.75;102119.31;5113540;28;20043;-61
2022/06/12 04:22:03;;;;;;;12.43;5.85;;;17.30;99.90;;;17.71;80.74;102113.94;5113514;28;20562;-61
2022/06/12 04:24:39;;;;;;;17.38;7.25;;;17.30;99.90;;;17.81;80.37;102120.06;5113503;28;20078;-60
2022/06/12 04:27:15;;;;;;;17.02;6.28;;;17.40;99.90;;;17.79;79.65;102122.75;5113784;28;20583;-61
2022/06/12 04:29:53;;;;;;;13.18;5.70;;;17.30;99.90;;;17.66;78.98;102099.75;5114131;28;20039;-61
2022/06/12 04:32:22;;;;;;;11.70;6.28;;;17.30;99.90;;;17.72;78.45;102120.19;5113498;28;20071;-61
2022/06/12 04:34:53;;;;;;;21.73;6.45;;;17.30;99.90;;;17.71;78.54;102124.66;5112419;28;20066;-61
2022/06/12 04:37:28;;;;;;;18.15;6.47;;;17.30;99.90;;;17.71;78.50;102131.81;5113191;28;20054;-60
2022/06/12 04:39:58;;;;;;;14.55;6.57;;;17.20;99.90;;;17.75;78.86;102126.38;5113206;28;20067;-61
2022/06/12 04:42:30;;;;;;;13.75;6.22;;;17.30;99.90;;;17.83;79.17;102134.31;5113421;28;20048;-61
2022/06/12 04:45:00;;;;;;;15.90;6.45;;;17.30;99.90;;;17.92;79.06;102135.06;5113373;28;20059;-61
2022/06/12 04:47:31;;;;;;;12.23;5.68;;;17.40;99.90;;;17.99;79.07;102138.56;5113667;28;20043;-61
2022/06/12 04:49:59;;;;;;;;;;;17.50;99.90;;;18.06;78.35;102139.34;5114049;28;20048;-60
2022/06/12 04:52:30;;;;;;;15.95;5.90;;;17.60;99.90;;;18.18;77.52;102136.47;5113137;28;20333;-60
2022/06/12 04:54:59;;;;;;;13.95;6.15;;;17.60;99.90;;;18.22;77.03;102138.19;5113196;28;20047;-60
2022/06/12 04:57:27;;;;;;;14.48;5.90;;;17.70;99.90;;;18.29;76.25;102139.88;5112745;28;20036;-61
2022/06/12 04:59:55;;;;;;;14.85;5.88;;;17.80;99.90;;;18.33;74.76;102141.63;5112881;28;20093;-61
2022/06/12 05:02:24;;;;;;;19.52;5.60;;;17.90;99.90;;;18.36;75.40;102136.19;5112623;28;20126;-61
2022/06/12 05:04:53;;;;;;;16.65;6.25;;;17.90;99.90;;;18.45;74.96;102144.09;5112570;28;20050;-61
2022/06/12 05:07:21;;;;;;;16.75;6.55;;;18.00;99.90;;;18.40;74.85;102130.78;5112490;28;20039;-61
2022/06/12 05:09:51;;;;;;;18.98;6.10;;;18.00;99.90;;;18.57;73.48;102134.06;5112702;28;20055;-60
2022/06/12 05:12:20;;;;;;;17.50;5.68;;;18.20;99.90;;;18.76;73.86;102140.88;5112161;28;20162;-61
2022/06/12 05:14:48;;;;;;;17.00;5.60;;;18.30;99.90;;;18.73;73.60;102135.59;5112682;28;20496;-61
2022/06/12 05:17:22;;;;;;;14.07;5.78;;;18.40;99.90;;;18.85;72.87;102145.22;5112300;28;20043;-60
2022/06/12 05:19:51;;;;;;;13.60;5.82;;;18.50;99.90;;;18.87;73.14;102143.38;5094301;28;20048;-61
2022/06/12 05:22:22;;;;;;;23.42;6.10;;;18.50;99.90;;;18.80;71.84;102123.84;5112220;28;20400;-61
2022/06/12 05:24:52;;;;;;;17.63;5.43;;;18.50;99.90;;;18.99;71.26;102139.59;5112546;28;20050;-61
2022/06/12 05:27:24;;;;;;;17.70;6.07;;;18.60;99.90;;;18.95;70.79;102125.34;5112524;28;20118;-61
2022/06/12 05:29:53;;;;;;;16.63;5.95;;;18.60;99.90;;;18.94;70.62;102142.34;5112235;28;20098;-61
2022/06/12 05:32:23;;;;;;;21.92;7.05;;;18.60;99.90;;;19.09;70.97;102149.22;5112116;28;20058;-61
2022/06/12 05:34:52;;;;;;;22.02;6.10;;;18.60;99.90;;;18.91;71.28;102145.97;5112176;28;20047;-61
2022/06/12 05:37:21;;;;;;;16.27;5.82;;;18.60;99.90;;;18.85;71.02;102146.06;5112393;28;20418;-61
2022/06/12 05:39:50;;;;;;;14.88;5.57;;;18.50;99.90;;;18.86;70.51;102145.19;5111966;28;20135;-61
2022/06/12 05:42:20;;;;;;;17.08;6.20;;;18.50;99.90;;;18.89;70.93;102149.63;5112300;28;20126;-61
2022/06/12 05:44:49;;;;;;;18.13;5.95;;;18.50;99.90;;;19.02;70.82;102153.84;5112798;28;20526;-61
2022/06/12 05:47:18;;;;;;;16.63;5.80;;;18.60;99.90;;;18.98;70.56;102149.44;5116196;28;20122;-61
2022/06/12 05:49:46;;;;;;;18.90;6.43;;;18.50;99.90;;;19.12;69.59;102158.13;5116191;28;20047;-61
2022/06/12 05:52:15;;;;;;;14.82;5.85;;;18.70;99.90;;;19.16;69.92;102172.34;5116063;28;20468;-60
2022/06/12 05:54:43;;;;;;;18.50;5.85;;;18.70;99.90;;;18.90;69.70;102146.00;5116543;28;20108;-61
2022/06/12 05:57:11;;;;;;;13.20;4.90;;;18.70;99.90;;;19.09;69.52;102170.69;5116436;28;20532;-60
2022/06/12 05:59:41;;;;;;;15.35;6.35;;;18.70;99.90;;;19.12;70.29;102173.31;5116075;28;20050;-61
2022/06/12 06:02:09;;;;;;;14.70;6.40;;;18.70;99.90;;;19.18;69.41;102170.53;5116348;28;20053;-61
2022/06/12 06:04:38;;;;;;;13.55;5.90;;;18.80;99.90;;;19.20;68.93;102166.00;5116146;28;20484;-61
2022/06/12 06:07:06;;;;;;;13.73;5.53;;;18.80;99.90;;;19.03;68.20;102170.81;5115986;28;20203;-61
2022/06/12 06:09:34;;;;;;;15.23;5.72;;;18.70;99.90;;;19.16;68.88;102175.03;5115975;28;20039;-61
2022/06/12 06:12:03;;;;;;;17.00;5.75;;;18.80;99.90;;;19.18;67.77;102170.53;5116023;28;20039;-61
2022/06/12 06:14:31;;;;;;;12.63;5.82;;;18.80;99.90;;;19.16;66.99;102180.41;5115685;28;20063;-60
2022/06/12 06:17:07;;;;;;;16.02;5.93;;;18.80;99.90;;;18.95;68.11;102181.66;5115671;28;20126;-60
2022/06/12 06:19:35;;;;;;;13.52;6.20;;;18.70;99.90;;;19.00;68.37;102179.78;5115541;28;20109;-60
2022/06/12 06:22:05;;;;;;;14.07;5.50;;;18.70;99.90;;;19.07;67.87;102183.22;5115613;28;20426;-62
2022/06/12 06:24:33;;;;;;;16.88;6.32;;;18.70;99.90;;;19.12;67.45;102179.59;5097381;28;20499;-61
2022/06/12 06:27:02;;;;;;;15.18;6.13;;;18.80;99.90;;;19.12;68.14;102176.91;5115478;28;20404;-60
2022/06/12 06:29:30;;;;;;;13.98;5.60;;;18.80;99.90;;;19.29;68.70;102189.97;5115333;28;20067;-61
2022/06/12 06:31:58;;;;;;;14.35;6.20;;;18.90;99.90;;;19.14;68.07;102172.38;5115186;28;20100;-61
2022/06/12 06:34:28;;;;;;;18.48;6.38;;;18.90;99.90;;;19.40;67.31;102198.72;5115089;28;20074;-60
2022/06/12 06:36:56;;;;;;;17.20;5.80;;;19.00;99.90;;;19.17;66.88;102192.88;5115338;28;20047;-61
2022/06/12 06:39:25;;;;;;;18.05;6.15;;;18.90;99.90;;;19.46;67.12;102196.81;5115451;28;20135;-61
2022/06/12 06:41:53;;;;;;;14.57;6.20;;;19.00;99.90;;;19.39;67.08;102184.44;5115530;28;20222;-61
2022/06/12 06:47:09;;;;;;;14.38;5.57;;;19.30;99.90;;;19.66;66.43;102207.16;5115567;28;20036;-61
2022/06/12 06:49:38;;;;;;;19.03;6.23;;;19.30;99.90;;;19.71;65.05;102202.56;5096527;28;20047;-61
2022/06/12 06:52:07;;;;;;;10.73;5.68;;;19.40;99.90;;;19.88;64.76;102215.66;5115210;28;20414;-61
2022/06/12 06:54:36;;;;;;;15.68;5.45;;;19.50;99.90;;;19.13;64.58;102083.88;5115041;28;20543;-61
2022/06/12 06:57:06;;;;;;;15.68;5.57;;;19.60;99.90;;;19.90;65.25;102214.69;5114155;28;20199;-60
2022/06/12 06:59:35;;;;;;;11.10;5.45;;;19.50;99.90;;;20.07;63.72;102227.78;5115044;28;20096;-61
2022/06/12 07:02:03;;;;;;;15.60;6.28;;;19.70;99.90;;;19.89;65.04;102215.63;5114718;28;20115;-61
2022/06/12 07:04:33;;;;;;;14.55;6.10;;;19.60;99.90;;;20.14;64.53;102227.63;5114504;28;20048;-61
2022/06/12 07:07:02;;;;;;;13.18;6.07;;;19.80;99.90;;;20.29;63.93;102224.59;5096612;28;20486;-61
2022/06/12 07:09:31;;;;;;;20.70;6.00;;;19.90;99.90;;;20.32;63.49;102226.34;5114688;28;20047;-61
2022/06/12 07:11:59;;;;;;;14.07;5.88;;;20.00;99.90;;;20.25;63.13;102213.94;5114619;28;20607;-61
2022/06/12 07:14:28;;;;;;;12.15;5.57;;;20.00;99.90;;;20.50;62.98;102226.81;5114944;28;20047;-61
2022/06/12 07:16:57;;;;;;;19.70;6.35;;;20.10;99.90;;;20.51;62.48;102225.91;5114555;28;20051;-61
2022/06/12 07:19:27;;;;;;;13.73;5.65;;;20.20;99.90;;;20.63;61.84;102230.09;5114519;28;20071;-61
2022/06/12 07:21:55;;;;;;;15.18;6.22;;;20.30;99.90;;;20.78;61.16;102228.81;5114674;28;20043;-61
2022/06/12 07:24:30;;;;;;;14.90;5.93;;;20.40;99.90;;;20.90;61.37;102233.91;5114510;28;20048;-61
2022/06/12 07:26:59;;;;;;;11.80;5.15;;;20.50;99.90;;;20.71;61.92;102229.91;5114454;28;20116;-61
2022/06/12 07:29:27;;;;;;;13.77;5.88;;;20.40;99.90;;;20.74;61.19;102221.75;5114450;28;20043;-61
2022/06/12 07:31:55;;;;;;;13.48;5.47;;;20.40;99.90;;;20.64;61.24;102215.72;5114394;28;20082;-61
2022/06/12 07:34:24;;;;;;;15.02;6.00;;;20.30;99.90;;;20.87;61.53;102224.09;5114256;28;20044;-61
2022/06/12 07:36:54;;;;;;;15.77;5.85;;;20.50;99.90;;;21.07;60.92;102235.28;5114403;28;20067;-61
2022/06/12 07:39:27;;;;;;;12.80;5.68;;;20.70;99.90;;;21.21;59.69;102229.53;5114830;28;20044;-61
2022/06/12 07:41:58;;;;;;;18.98;6.28;;;20.90;99.90;;;21.30;59.75;102227.47;5114777;28;20067;-61
2022/06/12 07:44:30;;;;;;;17.25;6.05;;;20.90;99.90;;;21.12;59.08;102175.94;5114111;28;20135;-61
2022/06/12 07:47:00;;;;;;;13.00;6.00;;;21.10;99.90;;;21.54;59.19;102228.63;5114574;28;20072;-61
2022/06/12 07:49:31;;;;;;;15.77;5.38;;;21.20;99.90;;;21.73;58.67;102219.09;5113993;28;20450;-61
2022/06/12 07:52:02;;;;;;;14.13;5.47;;;21.40;99.90;;;21.77;59.60;102222.56;5114101;28;20576;-62
2022/06/12 07:54:32;;;;;;;14.38;5.55;;;21.50;99.90;;;21.58;57.66;102212.31;5113958;28;20044;-61
2022/06/12 07:57:01;;;;;;;11.75;5.60;;;21.30;99.90;;;21.86;58.16;102230.41;5114083;28;20118;-61
2022/06/12 07:59:30;;;;;;;11.13;5.03;;;21.50;99.90;;;21.97;57.85;102234.56;5114033;28;20541;-61
2022/06/12 08:01:58;;;;;;;16.40;5.78;;;21.60;99.90;;;21.95;57.19;102233.72;5095487;28;20058;-61
2022/06/12 08:04:27;;;;;;;16.58;5.30;;;21.70;99.90;;;21.95;56.88;102244.50;5113456;28;20039;-61
2022/06/12 08:06:56;;;;;;;18.60;6.63;;;21.70;99.90;;;21.72;58.54;102228.09;5113938;28;20031;-61
2022/06/12 08:09:24;;;;;;;14.10;5.60;;;21.50;99.90;;;21.71;56.40;102229.03;5114041;28;20043;-61
2022/06/12 08:11:53;;;;;;;12.57;5.15;;;21.40;99.90;;;21.64;57.91;102234.63;5113592;28;20059;-61
2022/06/12 08:14:25;;;;;;;20.00;5.75;;;21.30;99.90;;;21.68;58.19;102231.78;5113666;28;20123;-61
2022/06/12 08:16:53;;;;;;;14.25;5.60;;;21.30;99.90;;;21.58;56.85;102232.13;5113535;28;20413;-61
2022/06/12 08:22:09;;;;;;;11.48;5.30;;;21.20;99.90;;;21.23;56.79;102231.28;5095015;28;20050;-61
2022/06/12 08:24:37;;;;;;;24.95;6.95;;;21.00;99.90;;;21.43;57.70;102241.47;5113353;28;20036;-61
2022/06/12 08:27:07;;;;;;;17.02;5.80;;;21.10;99.90;;;21.50;57.17;102241.25;5113070;28;20100;-61
2022/06/12 08:29:37;;;;;;;13.85;5.05;;;21.10;99.90;;;21.55;56.75;102233.06;5113267;28;20047;-61
2022/06/12 08:32:12;;;;;;;16.38;5.63;;;21.20;99.90;;;21.54;56.28;102234.00;5113207;28;20047;-61
2022/06/12 08:34:44;;;;;;;14.55;5.40;;;21.20;99.90;;;21.22;57.30;102237.56;5113161;28;20043;-61
2022/06/12 08:37:17;;;;;;;13.82;5.80;;;21.00;99.90;;;21.54;58.08;102240.25;5113209;28;20047;-61
2022/06/12 08:39:46;;;;;;;16.20;5.80;;;21.10;99.90;;;21.63;57.78;102238.25;5112836;28;20052;-61
2022/06/12 08:42:20;;;;;;;10.98;5.32;;;21.30;99.90;;;21.79;57.65;102231.50;5112665;28;20036;-61
2022/06/12 08:44:56;;;;;;;13.30;5.63;;;21.40;99.90;;;21.95;58.21;102233.72;5094576;28;20475;-61
2022/06/12 08:47:36;;;;;;;14.52;5.85;;;21.60;99.90;;;22.14;57.23;102231.38;5112729;28;20093;-61
2022/06/12 08:50:14;;;;;;;16.33;5.83;;;21.80;99.90;;;22.26;58.36;102225.63;5112776;28;20067;-61
2022/06/12 08:52:48;;;;;;;15.98;5.93;;;22.00;99.90;;;22.49;57.70;102236.56;5112710;28;20330;-61
2022/06/12 08:55:24;;;;;;;12.65;5.30;;;22.20;99.90;;;22.07;57.94;102236.06;5112438;28;20140;-61
2022/06/12 08:57:57;;;;;;;16.40;5.95;;;21.80;99.90;;;22.24;56.53;102225.63;5112373;28;20031;-61
2022/06/12 09:00:32;;;;;;;19.88;5.78;;;21.90;99.90;;;22.35;56.62;102228.00;5112437;28;20043;-61
2022/06/12 09:03:00;;;;;;;13.57;5.72;;;21.90;99.90;;;22.44;55.78;102222.31;5112417;28;20044;-61
2022/06/12 09:05:39;;;;;;;11.85;5.68;;;22.10;99.90;;;22.26;55.90;102220.22;5112150;28;20043;-61
2022/06/12 09:08:15;;;;;;;13.43;5.53;;;21.90;99.90;;;22.48;55.80;102220.41;5112840;28;20040;-61
2022/06/12 09:10:47;;;;;;;14.18;5.80;;;22.10;99.90;;;22.64;55.64;102213.63;5112404;28;20438;-61
2022/06/12 09:13:29;;;;;;;15.25;5.13;;;22.30;99.90;;;22.70;55.01;102221.53;5112116;28;20051;-61
2022/06/12 09:16:08;;;;;;;14.77;5.78;;;22.30;99.90;;;22.64;54.22;102206.41;5112226;28;20078;-61
2022/06/12 09:18:48;;;;;;;13.02;5.20;;;22.40;99.90;;;22.61;53.43;102222.69;5112185;28;20067;-61
2022/06/12 09:21:26;;;;;;;12.82;5.85;;;22.30;99.90;;;22.61;53.65;102190.31;5112168;28;20047;-61
2022/06/12 09:24:10;;;;;;;16.42;6.10;;;22.50;99.90;;;22.66;54.91;102217.16;5112315;28;20040;-61
2022/06/12 09:26:55;;;;;;;13.57;5.68;;;22.40;99.90;;;22.57;53.12;102215.63;5112544;28;20124;-61
2022/06/12 09:29:35;;;;;;;13.85;5.97;;;22.30;99.90;;;22.64;53.13;102221.72;5112022;28;20047;-61
2022/06/12 09:32:18;;;;;;;17.52;6.30;;;22.30;99.90;;;22.80;53.59;102223.00;5112067;28;20051;-61
2022/06/12 09:35:00;;;;;;;17.13;5.95;;;22.40;99.90;;;22.86;53.76;102222.78;5112007;28;20127;-61
2022/06/12 09:40:35;;;;;;;13.18;5.65;;;22.60;99.90;;;22.77;53.95;102229.34;5111974;28;20077;-61
2022/06/12 09:43:16;;;;;;;16.83;5.95;;;22.50;99.90;;;22.21;54.76;102219.47;5112130;28;20104;-61
2022/06/12 09:45:54;;;;;;;15.55;5.60;;;22.00;99.90;;;22.01;56.17;102221.91;5111881;28;20044;-61
2022/06/12 09:48:38;;;;;;;15.00;6.32;;;21.70;99.90;;;22.13;54.61;102218.81;5111913;28;20043;-61
2022/06/12 09:51:18;;;;;;;20.65;6.53;;;21.80;99.90;;;22.37;55.09;102232.44;5112198;28;20146;-61
2022/06/12 09:54:05;;;;;;;11.68;5.20;;;21.90;99.90;;;22.50;54.15;102241.00;5112179;28;20067;-61
2022/06/12 09:56:40;;;;;;;17.83;6.47;;;22.10;99.90;;;22.36;53.49;102233.34;5111828;28;20062;-61
2022/06/12 09:59:15;;;;;;;13.77;5.75;;;22.10;99.90;;;22.51;53.89;102241.91;5111857;28;20092;-61
2022/06/12 10:01:47;;;;;;;14.38;5.40;;;22.10;99.90;;;22.56;54.41;102219.25;5112094;28;20067;-61
2022/06/12 10:04:24;;;;;;;13.15;5.47;;;22.30;99.90;;;22.85;53.82;102238.09;5093801;28;20380;-61
2022/06/12 10:06:59;;;;;;;16.08;5.85;;;22.50;99.90;;;22.71;51.77;102242.16;5111851;28;20048;-61
2022/06/12 10:09:35;;;;;;;15.40;5.70;;;22.40;99.90;;;22.82;52.37;102229.22;5093798;28;20120;-61
2022/06/12 10:12:09;;;;;;;20.17;6.35;;;22.50;99.90;;;22.89;52.28;102233.47;5093828;28;20495;-61
2022/06/12 10:14:43;;;;;;;12.32;5.72;;;22.50;99.90;;;23.04;52.24;102241.94;5111661;28;20047;-61
2022/06/12 10:17:18;;;;;;;12.77;5.75;;;22.60;99.90;;;23.19;52.34;102241.41;5093882;28;20043;-61
2022/06/12 10:19:59;;;;;;;13.98;5.32;;;22.80;99.90;;;23.28;50.29;102233.00;5112002;28;20048;-61
2022/06/12 10:22:30;;;;;;;;;;;23.00;99.90;;;23.26;49.58;102233.97;5112286;28;20154;-61
2022/06/12 10:25:01;;;;;;;14.43;5.30;;;23.00;99.90;;;23.25;47.62;102234.91;5112390;28;19920;-61
2022/06/12 10:27:43;;;;;;;12.95;5.07;;;22.90;99.90;;;23.31;49.12;102242.81;5112777;28;20039;-62
2022/06/12 10:30:28;;;;;;;14.88;5.32;;;22.90;99.90;;;23.28;47.42;102232.09;5112264;28;20035;-61
2022/06/12 10:33:07;;;;;;;19.50;4.97;;;23.00;99.90;;;23.42;48.30;102240.66;5114081;27;20130;-61
2022/06/12 10:35:49;;;;;;;9.80;4.32;;;23.00;99.90;;;23.37;45.11;102239.00;5115327;28;20040;-61
2022/06/12 10:38:20;;;;;;;12.00;4.63;;;23.10;99.90;;;23.42;46.72;102234.34;5115429;28;20043;-61
2022/06/12 10:40:53;;;;;;;10.27;4.15;;;23.00;99.90;;;23.39;46.76;102239.84;5115413;28;20123;-61
2022/06/12 10:43:32;;;;;;;10.50;4.97;;;23.00;99.90;;;23.37;45.74;102225.50;5115691;28;20040;-62
2022/06/12 10:46:06;;;;;;;11.63;4.80;;;23.10;99.90;;;23.39;46.84;102238.03;5115369;28;20100;-61
2022/06/12 10:48:36;;;;;;;10.65;4.65;;;23.00;99.90;;;23.34;45.19;102231.03;5115462;28;20050;-62
2022/06/12 10:51:23;;;;;;;9.13;4.38;;;23.00;99.90;;;23.15;45.19;102210.03;5115483;28;20488;-61